Time;durP1;ratioP1;P1;durP2;ratioP2;P2;SDS_P1;SDS_P2;PMS_P1;PMS_P2;Temp;Humidity;BMP_temperature;BMP_pressure;BME280_temperature;BME280_humidity;BME280_pressure;Samples;Min_cycle;Max_cycle;Signal;HPM_P1;HPM_P2
2022/07/26 01:43:44;;;;;;;1999.90;999.90;;;;;;;;;;5018548;23;20598;-71
2022/07/26 01:46:29;;;;;;;1999.90;999.90;;;;;;;;;;4973697;28;20314;-69
2022/07/26 01:49:14;;;;;;;1999.90;999.90;;;;;;;;;;4987282;28;20326;-69
2022/07/26 01:51:59;;;;;;;1999.90;999.90;;;;;;;;;;4987505;28;20441;-70
2022/07/26 01:54:44;;;;;;;1999.90;999.90;;;;;;;;;;4980593;28;20214;-69
2022/07/26 01:57:29;;;;;;;1999.90;999.90;;;;;;;;;;4989881;28;20779;-68
2022/07/26 02:00:16;;;;;;;1999.90;999.90;;;;;;;;;;4991341;28;20254;-68
2022/07/26 02:03:01;;;;;;;1999.90;999.90;;;;;;;;;;4986056;28;20237;-68
2022/07/26 02:05:46;;;;;;;1999.90;999.90;;;;;;;;;;4986466;28;20226;-67
2022/07/26 02:08:31;;;;;;;1999.90;999.90;;;;;;;;;;4985519;28;20216;-67
2022/07/26 02:11:16;;;;;;;1999.90;999.90;;;;;;;;;;4977231;28;20212;-67
2022/07/26 02:14:02;;;;;;;1999.90;999.90;;;;;;;;;;4990386;28;20215;-68
2022/07/26 02:16:49;;;;;;;1999.90;999.90;;;;;;;;;;4990296;28;20247;-68
2022/07/26 02:19:34;;;;;;;1999.90;999.90;;;;;;;;;;4981185;28;20706;-67
2022/07/26 02:22:20;;;;;;;1999.90;999.90;;;;;;;;;;4985831;28;20235;-67
2022/07/26 02:25:05;;;;;;;1999.90;999.90;;;;;;;;;;4992009;28;20410;-69
2022/07/26 02:27:50;;;;;;;1999.90;999.90;;;;;;;;;;4991790;28;20201;-68
2022/07/26 02:30:35;;;;;;;1999.90;999.90;;;;;;;;;;4994892;28;20231;-68
2022/07/26 02:33:21;;;;;;;1999.90;999.90;;;;;;;;;;4985186;28;20236;-68
2022/07/26 02:36:06;;;;;;;1999.90;999.90;;;;;;;;;;4995576;28;20243;-67
2022/07/26 02:38:51;;;;;;;1999.90;999.90;;;;;;;;;;4995266;28;20279;-68
2022/07/26 02:41:38;;;;;;;1999.90;999.90;;;;;;;;;;4995023;28;20223;-67
2022/07/26 02:44:23;;;;;;;1999.90;999.90;;;;;;;;;;4994485;28;20406;-67
2022/07/26 02:47:08;;;;;;;1999.90;999.90;;;;;;;;;;4993810;28;20231;-68
2022/07/26 02:49:54;;;;;;;1999.90;999.90;;;;;;;;;;4988386;28;20217;-69
2022/07/26 02:52:40;;;;;;;1999.90;999.90;;;;;;;;;;4975496;28;20663;-67
2022/07/26 02:55:25;;;;;;;1999.90;999.90;;;;;;;;;;4975713;28;20340;-68
2022/07/26 02:58:10;;;;;;;1999.90;999.90;;;;;;;;;;4975425;28;20211;-68
2022/07/26 03:00:55;;;;;;;1999.90;999.90;;;;;;;;;;4981097;28;20258;-68
2022/07/26 03:03:39;;;;;;;1999.90;999.90;;;;;;;;;;4987495;28;20211;-67
2022/07/26 03:06:26;;;;;;;1999.90;999.90;;;;;;;;;;4994989;28;20222;-69
2022/07/26 03:09:11;;;;;;;1999.90;999.90;;;;;;;;;;4994629;28;20305;-68
2022/07/26 03:11:56;;;;;;;1999.90;999.90;;;;;;;;;;4987870;28;20311;-67
2022/07/26 03:14:40;;;;;;;1999.90;999.90;;;;;;;;;;4975550;28;20702;-68
2022/07/26 03:17:25;;;;;;;1999.90;999.90;;;;;;;;;;4975281;28;20224;-68
2022/07/26 03:20:11;;;;;;;1999.90;999.90;;;;;;;;;;4975208;28;20204;-69
2022/07/26 03:22:57;;;;;;;1999.90;999.90;;;;;;;;;;4992706;28;20303;-67
2022/07/26 03:25:42;;;;;;;1999.90;999.90;;;;;;;;;;4986915;28;20203;-68
2022/07/26 03:28:29;;;;;;;1999.90;999.90;;;;;;;;;;4994415;28;20326;-68
2022/07/26 03:31:14;;;;;;;1999.90;999.90;;;;;;;;;;4985165;28;20425;-69
2022/07/26 03:33:59;;;;;;;1999.90;999.90;;;;;;;;;;4994153;28;20204;-68
2022/07/26 03:36:43;;;;;;;1999.90;999.90;;;;;;;;;;4993718;28;20409;-68
2022/07/26 03:39:30;;;;;;;1999.90;999.90;;;;;;;;;;4993297;28;20209;-68
2022/07/26 03:42:15;;;;;;;1999.90;999.90;;;;;;;;;;4985014;28;20494;-68
2022/07/26 03:45:00;;;;;;;1999.90;999.90;;;;;;;;;;4987680;28;20329;-67
2022/07/26 03:47:45;;;;;;;1999.90;999.90;;;;;;;;;;4974364;28;20729;-69
2022/07/26 03:50:30;;;;;;;1999.90;999.90;;;;;;;;;;4974677;28;20617;-69
2022/07/26 03:53:16;;;;;;;1999.90;999.90;;;;;;;;;;4974651;28;20227;-68
2022/07/26 03:59:07;;;;;;;1999.90;999.90;;;;;;;;;;4989517;28;20581;-68
2022/07/26 04:01:53;;;;;;;1999.90;999.90;;;;;;;;;;4994021;28;20363;-68
2022/07/26 04:04:38;;;;;;;1999.90;999.90;;;;;;;;;;4993875;28;20219;-68
2022/07/26 04:07:22;;;;;;;1999.90;999.90;;;;;;;;;;4983491;28;20223;-69
2022/07/26 04:10:08;;;;;;;1999.90;999.90;;;;;;;;;;4993468;28;20208;-68
2022/07/26 04:12:54;;;;;;;1999.90;999.90;;;;;;;;;;4992595;28;20416;-68
2022/07/26 04:15:39;;;;;;;1999.90;999.90;;;;;;;;;;4993616;28;20294;-68
2022/07/26 04:18:23;;;;;;;1999.90;999.90;;;;;;;;;;4993468;28;20208;-68
2022/07/26 04:21:08;;;;;;;1999.90;999.90;;;;;;;;;;4992386;28;20285;-69
2022/07/26 04:23:53;;;;;;;1999.90;999.90;;;;;;;;;;4987596;28;20214;-68
2022/07/26 04:26:38;;;;;;;1999.90;999.90;;;;;;;;;;4993382;28;20280;-69
2022/07/26 04:29:24;;;;;;;1999.90;999.90;;;;;;;;;;4992845;28;20400;-68
2022/07/26 04:32:09;;;;;;;1999.90;999.90;;;;;;;;;;4993307;28;20223;-66
2022/07/26 04:34:54;;;;;;;1999.90;999.90;;;;;;;;;;4993356;28;20557;-68
2022/07/26 04:37:40;;;;;;;1999.90;999.90;;;;;;;;;;4992979;28;20257;-69
2022/07/26 04:40:27;;;;;;;1999.90;999.90;;;;;;;;;;4992060;28;20232;-68
2022/07/26 04:43:12;;;;;;;1999.90;999.90;;;;;;;;;;4984588;28;20248;-68
2022/07/26 04:45:59;;;;;;;1999.90;999.90;;;;;;;;;;4973710;28;20207;-69
2022/07/26 04:48:44;;;;;;;1999.90;999.90;;;;;;;;;;4977043;28;20579;-68
2022/07/26 04:51:29;;;;;;;1999.90;999.90;;;;;;;;;;4992779;28;20291;-69
2022/07/26 04:54:19;;;;;;;1999.90;999.90;;;;;;;;;;4989112;28;20218;-68
2022/07/26 04:57:04;;;;;;;1999.90;999.90;;;;;;;;;;4980226;28;20209;-68
2022/07/26 04:59:49;;;;;;;1999.90;999.90;;;;;;;;;;4978737;28;20213;-68
2022/07/26 05:02:35;;;;;;;1999.90;999.90;;;;;;;;;;4972827;28;20241;-69
2022/07/26 05:05:21;;;;;;;1999.90;999.90;;;;;;;;;;4989925;28;20534;-68
2022/07/26 05:08:06;;;;;;;1999.90;999.90;;;;;;;;;;4990545;28;20780;-68
2022/07/26 05:10:51;;;;;;;1999.90;999.90;;;;;;;;;;4989559;28;20214;-69
2022/07/26 05:13:36;;;;;;;1999.90;999.90;;;;;;;;;;4972780;28;20232;-70
2022/07/26 05:16:21;;;;;;;1999.90;999.90;;;;;;;;;;4987739;28;20328;-69
2022/07/26 05:19:07;;;;;;;1999.90;999.90;;;;;;;;;;4990696;28;20213;-69
2022/07/26 05:21:52;;;;;;;1999.90;999.90;;;;;;;;;;4985119;28;20254;-69
2022/07/26 05:24:37;;;;;;;1999.90;999.90;;;;;;;;;;4983439;28;20405;-69
2022/07/26 05:27:22;;;;;;;1999.90;999.90;;;;;;;;;;4982896;28;20241;-69
2022/07/26 05:30:08;;;;;;;1999.90;999.90;;;;;;;;;;4973114;28;20584;-69
2022/07/26 05:32:53;;;;;;;1999.90;999.90;;;;;;;;;;4975108;28;20243;-69
2022/07/26 05:35:39;;;;;;;1999.90;999.90;;;;;;;;;;4985015;28;20568;-68
2022/07/26 05:38:25;;;;;;;1999.90;999.90;;;;;;;;;;4986980;28;20286;-68
2022/07/26 05:41:09;;;;;;;1999.90;999.90;;;;;;;;;;4988147;28;20699;-69
2022/07/26 05:43:54;;;;;;;1999.90;999.90;;;;;;;;;;4990379;28;20226;-69
2022/07/26 05:46:39;;;;;;;1999.90;999.90;;;;;;;;;;4991180;28;20223;-69
2022/07/26 05:49:25;;;;;;;1999.90;999.90;;;;;;;;;;4982194;28;20389;-67
2022/07/26 05:52:11;;;;;;;1999.90;999.90;;;;;;;;;;4978326;28;20235;-67
2022/07/26 05:54:56;;;;;;;1999.90;999.90;;;;;;;;;;4973335;28;20573;-68
2022/07/26 05:57:41;;;;;;;1999.90;999.90;;;;;;;;;;4981650;28;20754;-67
2022/07/26 06:00:26;;;;;;;1999.90;999.90;;;;;;;;;;4989517;28;20204;-68
2022/07/26 06:06:10;;;;;;;1999.90;999.90;;;;;;;;;;4978469;28;20231;-69
2022/07/26 06:08:57;;;;;;;1999.90;999.90;;;;;;;;;;4988792;28;20694;-69
2022/07/26 06:11:42;;;;;;;1999.90;999.90;;;;;;;;;;4986359;28;20594;-69
2022/07/26 06:14:27;;;;;;;1999.90;999.90;;;;;;;;;;4986754;28;20215;-71
2022/07/26 06:17:11;;;;;;;1999.90;999.90;;;;;;;;;;4985590;28;20411;-71
2022/07/26 06:19:57;;;;;;;1999.90;999.90;;;;;;;;;;4980137;28;20644;-71
2022/07/26 06:22:42;;;;;;;1999.90;999.90;;;;;;;;;;4980394;28;20255;-71
2022/07/26 06:25:28;;;;;;;1999.90;999.90;;;;;;;;;;4975546;28;20224;-71
2022/07/26 06:28:13;;;;;;;1999.90;999.90;;;;;;;;;;4975126;28;20231;-71
2022/07/26 06:30:58;;;;;;;1999.90;999.90;;;;;;;;;;4989263;28;20250;-70
2022/07/26 06:33:43;;;;;;;1999.90;999.90;;;;;;;;;;4991546;28;20901;-71
2022/07/26 06:36:27;;;;;;;1999.90;999.90;;;;;;;;;;4982038;28;20331;-69
2022/07/26 06:39:12;;;;;;;1999.90;999.90;;;;;;;;;;4976977;28;20207;-71
2022/07/26 06:41:59;;;;;;;1999.90;999.90;;;;;;;;;;4974992;28;20318;-71
2022/07/26 06:44:43;;;;;;;1999.90;999.90;;;;;;;;;;4975314;28;20204;-71
2022/07/26 06:47:28;;;;;;;1999.90;999.90;;;;;;;;;;4989080;28;20335;-71
2022/07/26 06:50:13;;;;;;;1999.90;999.90;;;;;;;;;;4985547;28;20696;-70
2022/07/26 06:52:58;;;;;;;1999.90;999.90;;;;;;;;;;4978946;28;20420;-72
2022/07/26 06:55:43;;;;;;;1999.90;999.90;;;;;;;;;;4976518;28;20215;-71
2022/07/26 06:58:30;;;;;;;1999.90;999.90;;;;;;;;;;4974910;28;20570;-71
2022/07/26 07:01:15;;;;;;;1999.90;999.90;;;;;;;;;;4974972;28;20578;-71
2022/07/26 07:04:00;;;;;;;1999.90;999.90;;;;;;;;;;4974911;28;20796;-71
2022/07/26 07:06:45;;;;;;;1999.90;999.90;;;;;;;;;;4979174;28;20211;-71
2022/07/26 07:09:29;;;;;;;1999.90;999.90;;;;;;;;;;4974614;28;20211;-71
2022/07/26 07:12:15;;;;;;;1999.90;999.90;;;;;;;;;;4973290;28;20510;-70
2022/07/26 07:15:01;;;;;;;1999.90;999.90;;;;;;;;;;4974320;28;20285;-70
2022/07/26 07:17:47;;;;;;;1999.90;999.90;;;;;;;;;;4975305;28;20607;-70
2022/07/26 07:20:33;;;;;;;1999.90;999.90;;;;;;;;;;4975397;28;20715;-70
2022/07/26 07:23:21;;;;;;;1999.90;999.90;;;;;;;;;;4985203;28;20239;-70
2022/07/26 07:26:06;;;;;;;1999.90;999.90;;;;;;;;;;4982213;28;20215;-70
2022/07/26 07:28:51;;;;;;;1999.90;999.90;;;;;;;;;;4987943;28;20236;-71
2022/07/26 07:31:38;;;;;;;1999.90;999.90;;;;;;;;;;4994640;28;20231;-70
2022/07/26 07:34:23;;;;;;;1999.90;999.90;;;;;;;;;;4994891;28;20302;-70
2022/07/26 07:37:08;;;;;;;1999.90;999.90;;;;;;;;;;4994920;28;20215;-70
2022/07/26 07:39:53;;;;;;;1999.90;999.90;;;;;;;;;;4994529;28;20235;-70
2022/07/26 07:42:38;;;;;;;1999.90;999.90;;;;;;;;;;4990191;28;20235;-69
2022/07/26 07:45:23;;;;;;;1999.90;999.90;;;;;;;;;;4992324;28;20211;-70
2022/07/26 07:48:10;;;;;;;1999.90;999.90;;;;;;;;;;4993646;28;20222;-70
2022/07/26 07:50:54;;;;;;;1999.90;999.90;;;;;;;;;;4993868;28;20207;-69
2022/07/26 07:53:39;;;;;;;1999.90;999.90;;;;;;;;;;4994186;28;20223;-70
2022/07/26 07:56:24;;;;;;;1999.90;999.90;;;;;;;;;;4992322;28;20270;-67
2022/07/26 07:59:09;;;;;;;1999.90;999.90;;;;;;;;;;4984487;28;20215;-69
2022/07/26 08:01:54;;;;;;;1999.90;999.90;;;;;;;;;;4980781;28;20719;-67
2022/07/26 08:04:40;;;;;;;1999.90;999.90;;;;;;;;;;4990713;28;20417;-69
2022/07/26 08:07:25;;;;;;;1999.90;999.90;;;;;;;;;;4974257;28;20220;-69
2022/07/26 08:10:10;;;;;;;1999.90;999.90;;;;;;;;;;4980261;28;20802;-70
2022/07/26 08:12:55;;;;;;;1999.90;999.90;;;;;;;;;;4975993;28;20598;-70
2022/07/26 08:15:40;;;;;;;1999.90;999.90;;;;;;;;;;4979299;28;20227;-69
2022/07/26 08:18:25;;;;;;;1999.90;999.90;;;;;;;;;;4985079;28;20213;-69
2022/07/26 08:21:11;;;;;;;1999.90;999.90;;;;;;;;;;4990007;28;20219;-70
2022/07/26 08:23:56;;;;;;;1999.90;999.90;;;;;;;;;;4993457;28;20211;-70
2022/07/26 08:26:41;;;;;;;1999.90;999.90;;;;;;;;;;4992815;28;20278;-70
2022/07/26 08:29:27;;;;;;;1999.90;999.90;;;;;;;;;;4975130;28;20226;-69
2022/07/26 08:32:11;;;;;;;1999.90;999.90;;;;;;;;;;4973592;28;20763;-69
2022/07/26 08:34:56;;;;;;;1999.90;999.90;;;;;;;;;;4973788;28;20205;-70
2022/07/26 08:37:43;;;;;;;1999.90;999.90;;;;;;;;;;4973652;28;20209;-70
2022/07/26 08:40:28;;;;;;;1999.90;999.90;;;;;;;;;;4973742;28;20586;-69
2022/07/26 08:43:13;;;;;;;1999.90;999.90;;;;;;;;;;4973330;28;20227;-70
2022/07/26 08:46:01;;;;;;;1999.90;999.90;;;;;;;;;;4974551;28;20204;-71
2022/07/26 08:48:46;;;;;;;1999.90;999.90;;;;;;;;;;4977152;28;20285;-69
2022/07/26 08:51:31;;;;;;;1999.90;999.90;;;;;;;;;;4973300;28;20299;-69
2022/07/26 08:54:19;;;;;;;1999.90;999.90;;;;;;;;;;4973197;28;20719;-69
2022/07/26 08:57:04;;;;;;;1999.90;999.90;;;;;;;;;;4982011;28;20785;-69
2022/07/26 09:00:04;;;;;;;1999.90;999.90;;;;;;;;;;4991388;28;20256;-69
2022/07/26 09:02:49;;;;;;;1999.90;999.90;;;;;;;;;;4981483;28;20298;-70
2022/07/26 09:05:35;;;;;;;1999.90;999.90;;;;;;;;;;4981831;28;20823;-70
2022/07/26 09:08:24;;;;;;;1999.90;999.90;;;;;;;;;;4984000;28;20229;-70
2022/07/26 09:11:27;;;;;;;1999.90;999.90;;;;;;;;;;4977858;28;20273;-70
2022/07/26 09:14:12;;;;;;;1999.90;999.90;;;;;;;;;;4973591;28;20818;-69
2022/07/26 09:16:58;;;;;;;1999.90;999.90;;;;;;;;;;4973140;28;20202;-71
2022/07/26 09:19:43;;;;;;;1999.90;999.90;;;;;;;;;;4972717;28;20281;-70
2022/07/26 09:22:28;;;;;;;1999.90;999.90;;;;;;;;;;4983436;28;20249;-69
2022/07/26 09:25:20;;;;;;;1999.90;999.90;;;;;;;;;;4991423;28;20235;-70
2022/07/26 09:28:20;;;;;;;1999.90;999.90;;;;;;;;;;4980615;28;20275;-70
2022/07/26 09:31:06;;;;;;;1999.90;999.90;;;;;;;;;;4992501;28;20692;-71
2022/07/26 09:33:51;;;;;;;1999.90;999.90;;;;;;;;;;4992481;28;20914;-70
2022/07/26 09:36:49;;;;;;;1999.90;999.90;;;;;;;;;;4992206;28;20210;-71
2022/07/26 09:39:52;;;;;;;1999.90;999.90;;;;;;;;;;4995392;28;20201;-72
2022/07/26 09:42:38;;;;;;;1999.90;999.90;;;;;;;;;;4994957;28;20261;-70
2022/07/26 09:45:25;;;;;;;1999.90;999.90;;;;;;;;;;4988508;28;20216;-71
2022/07/26 09:48:11;;;;;;;1999.90;999.90;;;;;;;;;;4995845;28;20221;-70
2022/07/26 09:50:56;;;;;;;1999.90;999.90;;;;;;;;;;4995832;28;20413;-70
2022/07/26 09:53:41;;;;;;;1999.90;999.90;;;;;;;;;;4996643;28;20279;-71
2022/07/26 09:56:40;;;;;;;1999.90;999.90;;;;;;;;;;4988859;28;20271;-69
2022/07/26 09:59:26;;;;;;;1999.90;999.90;;;;;;;;;;4983079;28;20220;-68
2022/07/26 10:02:13;;;;;;;1999.90;999.90;;;;;;;;;;4987019;28;20840;-69
2022/07/26 10:04:58;;;;;;;1999.90;999.90;;;;;;;;;;4984481;28;20259;-69
2022/07/26 10:07:43;;;;;;;1999.90;999.90;;;;;;;;;;4993558;28;20213;-69
2022/07/26 10:10:30;;;;;;;1999.90;999.90;;;;;;;;;;4994331;28;20214;-67
2022/07/26 10:13:15;;;;;;;1999.90;999.90;;;;;;;;;;4986162;28;20374;-65
2022/07/26 10:16:01;;;;;;;1999.90;999.90;;;;;;;;;;4985868;28;20207;-68
2022/07/26 10:18:49;;;;;;;1999.90;999.90;;;;;;;;;;4977916;28;20690;-68
2022/07/26 10:21:34;;;;;;;1999.90;999.90;;;;;;;;;;4995770;28;20213;-68
2022/07/26 10:24:24;;;;;;;1999.90;999.90;;;;;;;;;;4995815;28;20565;-68
2022/07/26 10:27:32;;;;;;;1999.90;999.90;;;;;;;;;;4994219;28;20716;-68
2022/07/26 10:30:24;;;;;;;1999.90;999.90;;;;;;;;;;4989816;28;20437;-67
2022/07/26 10:33:12;;;;;;;1999.90;999.90;;;;;;;;;;4991670;28;20725;-67
2022/07/26 10:35:59;;;;;;;1999.90;999.90;;;;;;;;;;4995549;28;20210;-67
2022/07/26 10:38:57;;;;;;;1999.90;999.90;;;;;;;;;;4995292;28;20203;-68
2022/07/26 10:41:43;;;;;;;1999.90;999.90;;;;;;;;;;4995329;28;20227;-67
2022/07/26 10:44:29;;;;;;;1999.90;999.90;;;;;;;;;;4993287;28;20204;-68
2022/07/26 10:47:21;;;;;;;1999.90;999.90;;;;;;;;;;4986037;28;20388;-67
2022/07/26 10:50:06;;;;;;;1999.90;999.90;;;;;;;;;;4994308;28;20196;-68
2022/07/26 10:52:58;;;;;;;1999.90;999.90;;;;;;;;;;4995308;28;20225;-68
2022/07/26 10:55:48;;;;;;;1999.90;999.90;;;;;;;;;;4995164;28;20608;-68
2022/07/26 10:58:41;;;;;;;1999.90;999.90;;;;;;;;;;4985837;28;20806;-68
2022/07/26 11:01:32;;;;;;;1999.90;999.90;;;;;;;;;;4984540;28;20217;-68
2022/07/26 11:04:17;;;;;;;1999.90;999.90;;;;;;;;;;4976529;28;20700;-68
2022/07/26 11:07:03;;;;;;;1999.90;999.90;;;;;;;;;;4990989;28;20234;-69
2022/07/26 11:09:49;;;;;;;1999.90;999.90;;;;;;;;;;4983844;28;20226;-69
2022/07/26 11:12:34;;;;;;;1999.90;999.90;;;;;;;;;;4982060;28;20302;-68
2022/07/26 11:15:19;;;;;;;1999.90;999.90;;;;;;;;;;4979247;28;20211;-69
2022/07/26 11:18:08;;;;;;;1999.90;999.90;;;;;;;;;;4991361;28;20218;-69
2022/07/26 11:20:54;;;;;;;1999.90;999.90;;;;;;;;;;4975418;28;20246;-68
2022/07/26 11:23:41;;;;;;;1999.90;999.90;;;;;;;;;;4983233;28;20227;-68
2022/07/26 11:26:27;;;;;;;1999.90;999.90;;;;;;;;;;4975290;28;20344;-68
2022/07/26 11:29:12;;;;;;;1999.90;999.90;;;;;;;;;;4980187;28;20299;-68
2022/07/26 11:31:57;;;;;;;1999.90;999.90;;;;;;;;;;4979985;28;20227;-71
2022/07/26 11:34:43;;;;;;;1999.90;999.90;;;;;;;;;;4987563;28;20276;-68
2022/07/26 11:37:28;;;;;;;1999.90;999.90;;;;;;;;;;4982529;28;20620;-70
2022/07/26 11:40:13;;;;;;;1999.90;999.90;;;;;;;;;;4990083;28;20994;-69
2022/07/26 11:43:00;;;;;;;1999.90;999.90;;;;;;;;;;4974668;28;20239;-69
2022/07/26 11:45:51;;;;;;;1999.90;999.90;;;;;;;;;;4987473;28;20701;-69
2022/07/26 11:48:38;;;;;;;1999.90;999.90;;;;;;;;;;4992640;28;20602;-68
2022/07/26 11:51:24;;;;;;;1999.90;999.90;;;;;;;;;;4986030;28;20215;-69
2022/07/26 11:54:09;;;;;;;1999.90;999.90;;;;;;;;;;4994014;28;20702;-68
2022/07/26 11:56:55;;;;;;;1999.90;999.90;;;;;;;;;;4993816;28;20639;-68
2022/07/26 11:59:43;;;;;;;1999.90;999.90;;;;;;;;;;4993877;28;20210;-67
2022/07/26 12:02:29;;;;;;;1999.90;999.90;;;;;;;;;;4982422;28;20228;-68
2022/07/26 12:05:15;;;;;;;1999.90;999.90;;;;;;;;;;4985410;28;20218;-68
2022/07/26 12:08:02;;;;;;;1999.90;999.90;;;;;;;;;;4992873;28;20211;-68
2022/07/26 12:10:53;;;;;;;1999.90;999.90;;;;;;;;;;4974492;28;20210;-68
2022/07/26 12:13:48;;;;;;;1999.90;999.90;;;;;;;;;;4974164;28;20290;-69
2022/07/26 12:16:35;;;;;;;1999.90;999.90;;;;;;;;;;4991020;28;20813;-68
2022/07/26 12:19:25;;;;;;;1999.90;999.90;;;;;;;;;;4984215;28;20211;-69
2022/07/26 12:22:11;;;;;;;1999.90;999.90;;;;;;;;;;4978769;28;20911;-68
2022/07/26 12:24:57;;;;;;;1999.90;999.90;;;;;;;;;;4981987;28;20215;-68
2022/07/26 12:27:45;;;;;;;1999.90;999.90;;;;;;;;;;4973888;28;20699;-68
2022/07/26 12:30:34;;;;;;;1999.90;999.90;;;;;;;;;;4982399;28;20699;-68
2022/07/26 12:33:21;;;;;;;1999.90;999.90;;;;;;;;;;4984348;28;20234;-68
2022/07/26 12:36:16;;;;;;;1999.90;999.90;;;;;;;;;;4981251;28;20472;-67
2022/07/26 12:39:01;;;;;;;1999.90;999.90;;;;;;;;;;4990092;28;20202;-69
2022/07/26 12:41:49;;;;;;;1999.90;999.90;;;;;;;;;;4985976;28;20286;-68
2022/07/26 12:44:34;;;;;;;1999.90;999.90;;;;;;;;;;4993136;28;20639;-68
2022/07/26 12:47:19;;;;;;;1999.90;999.90;;;;;;;;;;4993080;28;20206;-67
2022/07/26 12:50:07;;;;;;;1999.90;999.90;;;;;;;;;;4983688;28;20231;-68
2022/07/26 12:52:52;;;;;;;1999.90;999.90;;;;;;;;;;4977947;28;20243;-68
2022/07/26 12:55:37;;;;;;;1999.90;999.90;;;;;;;;;;4987167;28;20215;-68
2022/07/26 12:58:22;;;;;;;1999.90;999.90;;;;;;;;;;4991468;28;20701;-68
2022/07/26 13:01:07;;;;;;;1999.90;999.90;;;;;;;;;;4981454;28;20315;-68
2022/07/26 13:03:52;;;;;;;1999.90;999.90;;;;;;;;;;4986360;28;20231;-69
2022/07/26 13:06:39;;;;;;;1999.90;999.90;;;;;;;;;;4988350;28;20571;-69
2022/07/26 13:09:24;;;;;;;1999.90;999.90;;;;;;;;;;4992256;28;20849;-69
2022/07/26 13:12:09;;;;;;;1999.90;999.90;;;;;;;;;;4994430;28;20591;-68
2022/07/26 13:14:54;;;;;;;1999.90;999.90;;;;;;;;;;4994131;28;20222;-69
2022/07/26 13:17:40;;;;;;;1999.90;999.90;;;;;;;;;;4991473;28;20218;-68
2022/07/26 13:20:24;;;;;;;1999.90;999.90;;;;;;;;;;4987122;28;20203;-68
2022/07/26 13:23:11;;;;;;;1999.90;999.90;;;;;;;;;;4983577;28;20255;-68
2022/07/26 13:25:56;;;;;;;1999.90;999.90;;;;;;;;;;4973155;28;20692;-68
2022/07/26 13:28:41;;;;;;;1999.90;999.90;;;;;;;;;;4980956;28;20207;-68
2022/07/26 13:31:26;;;;;;;1999.90;999.90;;;;;;;;;;4982483;28;20424;-68
2022/07/26 13:34:11;;;;;;;1999.90;999.90;;;;;;;;;;4991642;28;20207;-68
2022/07/26 13:36:56;;;;;;;1999.90;999.90;;;;;;;;;;4973650;28;20336;-68
2022/07/26 13:39:42;;;;;;;1999.90;999.90;;;;;;;;;;4972761;28;20332;-69
2022/07/26 13:42:27;;;;;;;1999.90;999.90;;;;;;;;;;4982867;28;20239;-69
2022/07/26 13:45:12;;;;;;;1999.90;999.90;;;;;;;;;;4977241;28;20575;-69
2022/07/26 13:47:57;;;;;;;1999.90;999.90;;;;;;;;;;4976692;28;20739;-69
2022/07/26 13:50:43;;;;;;;1999.90;999.90;;;;;;;;;;4973167;28;20215;-68
2022/07/26 13:53:29;;;;;;;1999.90;999.90;;;;;;;;;;4972404;28;20310;-68
2022/07/26 13:56:15;;;;;;;1999.90;999.90;;;;;;;;;;4972345;28;20298;-69
2022/07/26 13:59:00;;;;;;;1999.90;999.90;;;;;;;;;;4990099;28;20227;-69
2022/07/26 14:01:45;;;;;;;1999.90;999.90;;;;;;;;;;4977518;28;20896;-68
2022/07/26 14:04:29;;;;;;;1999.90;999.90;;;;;;;;;;4991157;28;20215;-69
2022/07/26 14:07:14;;;;;;;1999.90;999.90;;;;;;;;;;4990116;28;20227;-68
2022/07/26 14:09:59;;;;;;;1999.90;999.90;;;;;;;;;;4984924;28;20234;-68
2022/07/26 14:12:46;;;;;;;1999.90;999.90;;;;;;;;;;4985087;28;20274;-68
2022/07/26 14:15:31;;;;;;;1999.90;999.90;;;;;;;;;;4990285;28;20262;-69
2022/07/26 14:18:16;;;;;;;1999.90;999.90;;;;;;;;;;4990267;28;20203;-68
2022/07/26 14:21:01;;;;;;;1999.90;999.90;;;;;;;;;;4977566;28;20251;-68
2022/07/26 14:23:46;;;;;;;1999.90;999.90;;;;;;;;;;4971934;28;20397;-68
2022/07/26 14:26:31;;;;;;;1999.90;999.90;;;;;;;;;;4979695;28;20255;-68
2022/07/26 14:29:18;;;;;;;1999.90;999.90;;;;;;;;;;4987117;28;20230;-68
2022/07/26 14:32:03;;;;;;;1999.90;999.90;;;;;;;;;;4992945;28;20592;-69
2022/07/26 14:34:48;;;;;;;1999.90;999.90;;;;;;;;;;4988108;28;20254;-69
2022/07/26 14:37:33;;;;;;;1999.90;999.90;;;;;;;;;;4991568;28;20327;-70
2022/07/26 14:40:18;;;;;;;1999.90;999.90;;;;;;;;;;4989618;28;20207;-69
2022/07/26 14:43:03;;;;;;;1999.90;999.90;;;;;;;;;;4994896;28;20235;-69
2022/07/26 14:45:50;;;;;;;1999.90;999.90;;;;;;;;;;4994208;28;20211;-69
2022/07/26 14:48:35;;;;;;;1999.90;999.90;;;;;;;;;;4992178;28;20210;-70
2022/07/26 14:51:20;;;;;;;1999.90;999.90;;;;;;;;;;4986304;28;20363;-69
2022/07/26 14:54:05;;;;;;;1999.90;999.90;;;;;;;;;;4981272;28;20215;-69
2022/07/26 14:56:50;;;;;;;1999.90;999.90;;;;;;;;;;4986889;28;20701;-69
2022/07/26 14:59:35;;;;;;;1999.90;999.90;;;;;;;;;;4994519;28;20318;-69
2022/07/26 15:02:21;;;;;;;1999.90;999.90;;;;;;;;;;4994064;28;20235;-69
2022/07/26 15:05:07;;;;;;;1999.90;999.90;;;;;;;;;;4983418;28;20786;-68
2022/07/26 15:07:52;;;;;;;1999.90;999.90;;;;;;;;;;4975241;28;20212;-69
2022/07/26 15:10:37;;;;;;;1999.90;999.90;;;;;;;;;;4975469;28;20235;-69
2022/07/26 15:13:22;;;;;;;1999.90;999.90;;;;;;;;;;4982024;28;20234;-69
2022/07/26 15:16:07;;;;;;;1999.90;999.90;;;;;;;;;;4982466;28;20423;-69
2022/07/26 15:18:53;;;;;;;1999.90;999.90;;;;;;;;;;4975103;28;20200;-69
2022/07/26 15:21:38;;;;;;;1999.90;999.90;;;;;;;;;;4982856;28;20227;-69
2022/07/26 15:24:23;;;;;;;1999.90;999.90;;;;;;;;;;4992481;28;20294;-69
2022/07/26 15:27:08;;;;;;;1999.90;999.90;;;;;;;;;;4996890;28;20207;-68
2022/07/26 15:29:53;;;;;;;1999.90;999.90;;;;;;;;;;4989749;28;20655;-69
2022/07/26 15:32:38;;;;;;;1999.90;999.90;;;;;;;;;;4982974;28;20320;-69
2022/07/26 15:35:24;;;;;;;1999.90;999.90;;;;;;;;;;4986240;28;20306;-69
2022/07/26 15:38:10;;;;;;;1999.90;999.90;;;;;;;;;;4978594;28;20295;-69
2022/07/26 15:40:55;;;;;;;1999.90;999.90;;;;;;;;;;4974784;28;20208;-69
2022/07/26 15:43:40;;;;;;;1999.90;999.90;;;;;;;;;;4974764;28;20232;-69
2022/07/26 15:46:25;;;;;;;1999.90;999.90;;;;;;;;;;4985834;28;20590;-69
2022/07/26 15:49:10;;;;;;;1999.90;999.90;;;;;;;;;;4978490;28;20216;-69
2022/07/26 15:51:56;;;;;;;1999.90;999.90;;;;;;;;;;4981101;28;20476;-69
2022/07/26 15:54:41;;;;;;;1999.90;999.90;;;;;;;;;;4986497;28;20231;-70
2022/07/26 15:57:26;;;;;;;1999.90;999.90;;;;;;;;;;4993416;28;20698;-69
2022/07/26 16:00:12;;;;;;;1999.90;999.90;;;;;;;;;;4993858;28;20227;-69
2022/07/26 16:02:56;;;;;;;1999.90;999.90;;;;;;;;;;4987000;28;20235;-69
2022/07/26 16:05:41;;;;;;;1999.90;999.90;;;;;;;;;;4974641;28;20211;-70
2022/07/26 16:08:28;;;;;;;1999.90;999.90;;;;;;;;;;4974184;28;20426;-69
2022/07/26 16:11:13;;;;;;;1999.90;999.90;;;;;;;;;;4977473;28;20277;-69
2022/07/26 16:13:58;;;;;;;1999.90;999.90;;;;;;;;;;4987767;28;20701;-69
2022/07/26 16:16:43;;;;;;;1999.90;999.90;;;;;;;;;;4984790;28;20222;-69
2022/07/26 16:19:28;;;;;;;1999.90;999.90;;;;;;;;;;4990941;28;20221;-69
2022/07/26 16:22:13;;;;;;;1999.90;999.90;;;;;;;;;;4993393;28;20357;-69
2022/07/26 16:24:59;;;;;;;1999.90;999.90;;;;;;;;;;4974073;28;20210;-68
2022/07/26 16:27:44;;;;;;;1999.90;999.90;;;;;;;;;;4973838;28;20211;-69
2022/07/26 16:30:29;;;;;;;1999.90;999.90;;;;;;;;;;4983126;28;20227;-69
2022/07/26 16:33:14;;;;;;;1999.90;999.90;;;;;;;;;;4984840;28;20724;-69
2022/07/26 16:35:59;;;;;;;1999.90;999.90;;;;;;;;;;4987924;28;20227;-69
2022/07/26 16:38:44;;;;;;;1999.90;999.90;;;;;;;;;;4973885;28;20272;-70
2022/07/26 16:41:30;;;;;;;1999.90;999.90;;;;;;;;;;4983377;28;20215;-69
2022/07/26 16:44:15;;;;;;;1999.90;999.90;;;;;;;;;;4992549;28;20481;-69
2022/07/26 16:47:00;;;;;;;1999.90;999.90;;;;;;;;;;4993305;28;20206;-69
2022/07/26 16:49:46;;;;;;;1999.90;999.90;;;;;;;;;;4987109;28;20244;-69
2022/07/26 16:52:30;;;;;;;1999.90;999.90;;;;;;;;;;4992184;28;20225;-69
2022/07/26 16:55:15;;;;;;;1999.90;999.90;;;;;;;;;;4979804;28;20681;-69
2022/07/26 16:58:02;;;;;;;1999.90;999.90;;;;;;;;;;4982983;28;20214;-69
2022/07/26 17:00:47;;;;;;;1999.90;999.90;;;;;;;;;;4981536;28;20206;-70
2022/07/26 17:03:32;;;;;;;1999.90;999.90;;;;;;;;;;4976506;28;20571;-69
2022/07/26 17:06:17;;;;;;;1999.90;999.90;;;;;;;;;;4984606;28;20214;-69
2022/07/26 17:09:01;;;;;;;1999.90;999.90;;;;;;;;;;4990341;28;20270;-68
2022/07/26 17:11:47;;;;;;;1999.90;999.90;;;;;;;;;;4980941;28;20308;-69
2022/07/26 17:14:33;;;;;;;1999.90;999.90;;;;;;;;;;4980299;28;20953;-68